TimeCDT,TemperatureF,Dew PointF,Humidity,Sea Level PressureIn,VisibilityMPH,Wind Direction,Wind SpeedMPH,Gust SpeedMPH,PrecipitationIn,Events,Conditions,WindDirDegrees,DateUTC
12:55 AM,64.9,59.2,82,29.52,10.0,South,20.7,27.6,N/A,,Clear,180,2012-10-17 05:55:00
1:55 AM,64.2,59.7,85,29.51,10.0,South,16.1,-,N/A,,Clear,180,2012-10-17 06:55:00
2:55 AM,63.9,60.4,89,29.49,10.0,South,17.3,25.3,N/A,,Clear,180,2012-10-17 07:55:00
3:55 AM,63.9,61.2,91,29.45,10.0,South,17.3,26.5,N/A,,Clear,170,2012-10-17 08:55:00
4:55 AM,63.7,62.4,96,29.42,10.0,South,19.6,25.3,N/A,,Clear,180,2012-10-17 09:55:00
5:55 AM,64.4,62.6,94,29.41,10.0,South,18.4,-,N/A,,Clear,170,2012-10-17 10:55:00
6:55 AM,64.4,62.8,94,29.39,10.0,South,19.6,26.5,N/A,,Clear,180,2012-10-17 11:55:00
7:55 AM,65.8,61.5,86,29.39,10.0,South,18.4,27.6,N/A,,Clear,190,2012-10-17 12:55:00
8:55 AM,67.1,60.3,79,29.42,10.0,SSW,15.0,-,N/A,,Clear,210,2012-10-17 13:55:00
9:55 AM,68.0,51.8,56,29.46,8.0,WNW,17.3,27.6,N/A,,Clear,300,2012-10-17 14:55:00
10:55 AM,70.0,56.8,63,29.48,10.0,North,18.4,28.8,N/A,,Clear,350,2012-10-17 15:55:00
11:55 AM,75.7,57.4,53,29.50,10.0,North,18.4,27.6,N/A,,Clear,350,2012-10-17 16:55:00
12:55 PM,74.3,59.2,59,29.57,10.0,NNW,24.2,34.5,N/A,,Clear,330,2012-10-17 17:55:00
1:55 PM,76.3,55.2,48,29.58,10.0,NNW,23.0,-,N/A,,Clear,330,2012-10-17 18:55:00
2:55 PM,75.4,52.2,44,29.60,10.0,NW,23.0,28.8,N/A,,Clear,320,2012-10-17 19:55:00
3:55 PM,74.7,45.9,36,29.63,10.0,NW,23.0,32.2,N/A,,Clear,310,2012-10-17 20:55:00
4:55 PM,74.1,42.6,32,29.66,10.0,NNW,18.4,27.6,N/A,,Clear,330,2012-10-17 21:55:00
5:55 PM,73.0,38.8,29,29.68,10.0,NW,15.0,24.2,N/A,,Clear,320,2012-10-17 22:55:00
6:55 PM,68.4,39.7,35,29.70,10.0,NW,11.5,-,N/A,,Clear,320,2012-10-17 23:55:00
7:55 PM,65.8,35.1,32,29.74,10.0,NW,13.8,-,N/A,,Clear,320,2012-10-18 00:55:00
8:55 PM,63.7,30.6,29,29.77,10.0,NNW,16.1,-,N/A,,Clear,330,2012-10-18 01:55:00
9:55 PM,60.6,28.0,29,29.78,10.0,North,12.7,-,N/A,,Clear,350,2012-10-18 02:55:00
10:55 PM,59.0,27.1,30,29.83,10.0,NNW,10.4,-,N/A,,Clear,330,2012-10-18 03:55:00
11:55 PM,53.6,30.0,41,29.84,10.0,NW,6.9,-,N/A,,Clear,320,2012-10-18 04:55:00